Pacific Fantasy — A8MV6 — position and weather

sailwx.info

Track history (hours):
 
Tides and Currents Weather Stations Pressure Air Temp Water Temp Dewpoint Dewpoint Depression Visibility Wind Speed Wind Dir Waves Ship Positions

Pacific Fantasy

Last reported at 2014-Nov-27 02:33 UTC. Time now 2014-Nov-27 02:53 UTC.
Position N 36°40' W 025°27'.

Length 180 m; draft 6.5 m.

Type: Cargo ship. MMSI: 636013744.

Date/timePositionNaut miles runAvg speedWind from/ knotsBaromVisibWave heightAir tempDewpointWater temp
2014-Nov-27 02:33N 36°40' W 025°27'9 8.8
2014-Nov-27 01:33N 36°42' W 025°17'9 9.4
2014-Nov-27 00:33N 36°44' W 025°05'10 9.7
2014-Nov-26 23:33N 36°47' W 024°54'1010.0
2014-Nov-26 22:33N 36°51' W 024°42'1010.4
2014-Nov-26 21:33N 36°57' W 024°32'1010.3
2014-Nov-26 20:33N 37°03' W 024°21'1110.6
2014-Nov-26 19:33N 37°10' W 024°11'10 9.6
2014-Nov-26 18:33N 37°17' W 024°04'1111.2
2014-Nov-26 17:33N 37°29' W 024°03'1110.9
2014-Nov-26 16:33N 37°39' W 024°03'1111.1
2014-Nov-26 15:33N 37°51' W 024°02'1111.0
2014-Nov-26 14:33N 38°01' W 024°02'  
2014-Nov-21 16:19N 50°03' W 002°31'9812.6
2014-Nov-21 08:33N 50°29' W 000°04'10 9.7
2014-Nov-21 07:29N 50°32' E 000°11'9 9.8
2014-Nov-21 06:33N 50°35' E 000°25'1110.8
2014-Nov-21 05:33N 50°39' E 000°41'1312.5
2014-Nov-21 04:33N 50°47' E 000°56'1313.0
2014-Nov-21 03:33N 50°56' E 001°12'1212.4
2014-Nov-21 02:33N 51°04' E 001°26'1110.6
2014-Nov-21 01:34N 51°10' E 001°40'10 9.8
2014-Nov-21 00:33N 51°18' E 001°50'10 9.5
2014-Nov-20 23:33N 51°25' E 001°59'1110.7
2014-Nov-20 22:31N 51°21' E 002°15'1010.3
2014-Nov-20 21:32N 51°23' E 002°31'1010.4
2014-Nov-20 20:33N 51°25' E 002°47'1211.4
2014-Nov-20 19:32N 51°24' E 003°06'1111.7
2014-Nov-20 18:33N 51°25' E 003°24'1110.8
2014-Nov-20 17:33N 51°27' E 003°41'1 1.2
2014-Nov-20 16:33N 51°27' E 003°42'0 0.0
2014-Nov-20 15:33N 51°27' E 003°42'0 0.0
2014-Nov-20 14:32N 51°27' E 003°42'0 0.0
2014-Nov-20 13:32N 51°27' E 003°42'0 0.0
2014-Nov-20 12:29N 51°27' E 003°42'0 0.0
2014-Nov-20 11:32N 51°27' E 003°42'0 0.0
2014-Nov-20 10:32N 51°27' E 003°42'0 0.0
2014-Nov-20 09:32N 51°27' E 003°42'0 0.0
2014-Nov-20 08:32N 51°27' E 003°42'0 0.0
2014-Nov-20 07:32N 51°27' E 003°42'0 0.0
2014-Nov-20 06:32N 51°27' E 003°42'0 0.0
2014-Nov-20 05:32N 51°27' E 003°42'0 0.0
2014-Nov-20 04:32N 51°27' E 003°42'0 0.0
2014-Nov-20 03:32N 51°27' E 003°42'0 0.0
2014-Nov-20 02:32N 51°27' E 003°42'0 0.0
2014-Nov-20 01:32N 51°27' E 003°42'0 0.0
2014-Nov-20 00:29N 51°27' E 003°42'0 0.0
2014-Nov-19 23:29N 51°27' E 003°42'0 0.0
2014-Nov-19 22:32N 51°27' E 003°42'0 0.0
2014-Nov-19 21:26N 51°27' E 003°42'0 0.0
2014-Nov-19 20:20N 51°27' E 003°42'0 0.0
2014-Nov-19 19:32N 51°27' E 003°42'0 0.0
2014-Nov-19 18:32N 51°27' E 003°42'0 0.0
2014-Nov-19 17:32N 51°27' E 003°42'0 0.0
2014-Nov-19 16:32N 51°27' E 003°42'0 0.0
2014-Nov-19 15:32N 51°27' E 003°42'0 0.0
2014-Nov-19 14:32N 51°27' E 003°42'0 0.0
2014-Nov-19 13:32N 51°27' E 003°42'0 0.0
2014-Nov-19 12:32N 51°27' E 003°42'0 0.0
2014-Nov-19 11:32N 51°27' E 003°42'0 0.0
2014-Nov-19 10:23N 51°27' E 003°42'0 0.0
2014-Nov-19 09:32N 51°27' E 003°42'0 0.0
2014-Nov-19 08:32N 51°27' E 003°42'0 0.0
2014-Nov-19 07:31N 51°27' E 003°42'0 0.0
2014-Nov-19 06:31N 51°27' E 003°42'0 0.0
2014-Nov-19 05:28N 51°27' E 003°42'0 0.0
2014-Nov-19 04:31N 51°27' E 003°42'0 0.0
2014-Nov-19 03:31N 51°27' E 003°42'0 0.0
2014-Nov-19 02:28N 51°27' E 003°42'0 0.0
2014-Nov-19 01:31N 51°27' E 003°42'0 0.0
2014-Nov-19 00:31N 51°27' E 003°42'0 0.0
2014-Nov-18 23:31N 51°27' E 003°42'0 0.0
2014-Nov-18 22:31N 51°27' E 003°42'0 0.0
2014-Nov-18 21:31N 51°27' E 003°42'0 0.0
2014-Nov-18 20:31N 51°27' E 003°42'0 0.0
2014-Nov-18 19:31N 51°27' E 003°42'0 0.0
2014-Nov-18 18:31N 51°27' E 003°42'0 0.0
2014-Nov-18 17:31N 51°27' E 003°42'0 0.0
2014-Nov-18 16:31N 51°27' E 003°42'0 0.0
2014-Nov-18 15:31N 51°27' E 003°42'0 0.0
2014-Nov-18 14:31N 51°27' E 003°42'0 0.0
2014-Nov-18 13:28N 51°27' E 003°42'0 0.0
2014-Nov-18 12:31N 51°27' E 003°42'0 0.0
2014-Nov-18 11:31N 51°27' E 003°42'0 0.0
2014-Nov-18 10:31N 51°27' E 003°42'0 0.0
2014-Nov-18 09:19N 51°27' E 003°42'0 0.0
2014-Nov-18 08:31N 51°27' E 003°42'0 0.0
2014-Nov-18 07:31N 51°27' E 003°42'0 0.0
2014-Nov-18 06:31N 51°27' E 003°42'0 0.0
2014-Nov-18 05:25N 51°27' E 003°42'0 0.0
2014-Nov-18 04:25N 51°27' E 003°42'0 0.0
2014-Nov-18 03:31N 51°27' E 003°42'0 0.0
2014-Nov-18 02:31N 51°27' E 003°42'0 0.0
2014-Nov-18 01:25N 51°27' E 003°42'0 0.0
2014-Nov-18 00:34N 51°27' E 003°42'0 0.0
2014-Nov-17 23:33N 51°27' E 003°42'0 0.0
2014-Nov-17 22:18N 51°27' E 003°42'0 0.0
2014-Nov-17 21:33N 51°27' E 003°42'0 0.0
2014-Nov-17 20:33N 51°27' E 003°42'0 0.0
2014-Nov-17 19:33N 51°27' E 003°42'0 0.0
2014-Nov-17 18:30N 51°27' E 003°42'0 0.0
2014-Nov-17 17:30N 51°27' E 003°42'0 0.0
2014-Nov-17 16:33N 51°27' E 003°42'0 0.0
2014-Nov-17 15:33N 51°27' E 003°42'0 0.0
2014-Nov-17 14:30N 51°27' E 003°42'0 0.0
2014-Nov-17 13:30N 51°27' E 003°42'0 0.0
2014-Nov-17 12:30N 51°27' E 003°42'0 0.0
2014-Nov-17 11:30N 51°27' E 003°42'0 0.0
2014-Nov-17 10:33N 51°27' E 003°42'0 0.0
2014-Nov-17 09:33N 51°27' E 003°42'0 0.0
2014-Nov-17 08:30N 51°27' E 003°42'0 0.0
2014-Nov-17 07:30N 51°27' E 003°42'0 0.0
2014-Nov-17 06:33N 51°27' E 003°42'0 0.0
2014-Nov-17 05:33N 51°27' E 003°42'0 0.0
2014-Nov-17 04:33N 51°27' E 003°42'0 0.0
2014-Nov-17 03:30N 51°27' E 003°42'  
Track history (hours):
 
Tides and Currents Weather Stations Pressure Air Temp Water Temp Dewpoint Dewpoint Depression Visibility Wind Speed Wind Dir Waves Ship Positions

Pacific Fantasy

Last reported at 2014-Nov-27 02:33 UTC. Time now 2014-Nov-27 02:53 UTC.
Position N 36°40' W 025°27'.

Length 180 m; draft 6.5 m.

Type: Cargo ship. MMSI: 636013744.

Date/timePositionNaut miles runAvg speedWind from/ knotsBaromVisibWave heightAir tempDewpointWater temp
2014-Nov-27 02:33N 36°40' W 025°27'9 8.8
2014-Nov-27 01:33N 36°42' W 025°17'9 9.4
2014-Nov-27 00:33N 36°44' W 025°05'10 9.7
2014-Nov-26 23:33N 36°47' W 024°54'1010.0
2014-Nov-26 22:33N 36°51' W 024°42'1010.4
2014-Nov-26 21:33N 36°57' W 024°32'1010.3
2014-Nov-26 20:33N 37°03' W 024°21'1110.6
2014-Nov-26 19:33N 37°10' W 024°11'10 9.6
2014-Nov-26 18:33N 37°17' W 024°04'1111.2
2014-Nov-26 17:33N 37°29' W 024°03'1110.9
2014-Nov-26 16:33N 37°39' W 024°03'1111.1
2014-Nov-26 15:33N 37°51' W 024°02'1111.0
2014-Nov-26 14:33N 38°01' W 024°02'  
2014-Nov-21 16:19N 50°03' W 002°31'9812.6
2014-Nov-21 08:33N 50°29' W 000°04'10 9.7
2014-Nov-21 07:29N 50°32' E 000°11'9 9.8
2014-Nov-21 06:33N 50°35' E 000°25'1110.8
2014-Nov-21 05:33N 50°39' E 000°41'1312.5
2014-Nov-21 04:33N 50°47' E 000°56'1313.0
2014-Nov-21 03:33N 50°56' E 001°12'1212.4
2014-Nov-21 02:33N 51°04' E 001°26'1110.6
2014-Nov-21 01:34N 51°10' E 001°40'10 9.8
2014-Nov-21 00:33N 51°18' E 001°50'10 9.5
2014-Nov-20 23:33N 51°25' E 001°59'1110.7
2014-Nov-20 22:31N 51°21' E 002°15'1010.3
2014-Nov-20 21:32N 51°23' E 002°31'1010.4
2014-Nov-20 20:33N 51°25' E 002°47'1211.4
2014-Nov-20 19:32N 51°24' E 003°06'1111.7
2014-Nov-20 18:33N 51°25' E 003°24'1110.8
2014-Nov-20 17:33N 51°27' E 003°41'1 1.2
2014-Nov-20 16:33N 51°27' E 003°42'0 0.0
2014-Nov-20 15:33N 51°27' E 003°42'0 0.0
2014-Nov-20 14:32N 51°27' E 003°42'0 0.0
2014-Nov-20 13:32N 51°27' E 003°42'0 0.0
2014-Nov-20 12:29N 51°27' E 003°42'0 0.0
2014-Nov-20 11:32N 51°27' E 003°42'0 0.0
2014-Nov-20 10:32N 51°27' E 003°42'0 0.0
2014-Nov-20 09:32N 51°27' E 003°42'0 0.0
2014-Nov-20 08:32N 51°27' E 003°42'0 0.0
2014-Nov-20 07:32N 51°27' E 003°42'0 0.0
2014-Nov-20 06:32N 51°27' E 003°42'0 0.0
2014-Nov-20 05:32N 51°27' E 003°42'0 0.0
2014-Nov-20 04:32N 51°27' E 003°42'0 0.0
2014-Nov-20 03:32N 51°27' E 003°42'0 0.0
2014-Nov-20 02:32N 51°27' E 003°42'0 0.0
2014-Nov-20 01:32N 51°27' E 003°42'0 0.0
2014-Nov-20 00:29N 51°27' E 003°42'0 0.0
2014-Nov-19 23:29N 51°27' E 003°42'0 0.0
2014-Nov-19 22:32N 51°27' E 003°42'0 0.0
2014-Nov-19 21:26N 51°27' E 003°42'0 0.0
2014-Nov-19 20:20N 51°27' E 003°42'0 0.0
2014-Nov-19 19:32N 51°27' E 003°42'0 0.0
2014-Nov-19 18:32N 51°27' E 003°42'0 0.0
2014-Nov-19 17:32N 51°27' E 003°42'0 0.0
2014-Nov-19 16:32N 51°27' E 003°42'0 0.0
2014-Nov-19 15:32N 51°27' E 003°42'0 0.0
2014-Nov-19 14:32N 51°27' E 003°42'0 0.0
2014-Nov-19 13:32N 51°27' E 003°42'0 0.0
2014-Nov-19 12:32N 51°27' E 003°42'0 0.0
2014-Nov-19 11:32N 51°27' E 003°42'0 0.0
2014-Nov-19 10:23N 51°27' E 003°42'0 0.0
2014-Nov-19 09:32N 51°27' E 003°42'0 0.0
2014-Nov-19 08:32N 51°27' E 003°42'0 0.0
2014-Nov-19 07:31N 51°27' E 003°42'0 0.0
2014-Nov-19 06:31N 51°27' E 003°42'0 0.0
2014-Nov-19 05:28N 51°27' E 003°42'0 0.0
2014-Nov-19 04:31N 51°27' E 003°42'0 0.0
2014-Nov-19 03:31N 51°27' E 003°42'0 0.0
2014-Nov-19 02:28N 51°27' E 003°42'0 0.0
2014-Nov-19 01:31N 51°27' E 003°42'0 0.0
2014-Nov-19 00:31N 51°27' E 003°42'0 0.0
2014-Nov-18 23:31N 51°27' E 003°42'0 0.0
2014-Nov-18 22:31N 51°27' E 003°42'0 0.0
2014-Nov-18 21:31N 51°27' E 003°42'0 0.0
2014-Nov-18 20:31N 51°27' E 003°42'0 0.0
2014-Nov-18 19:31N 51°27' E 003°42'0 0.0
2014-Nov-18 18:31N 51°27' E 003°42'0 0.0
2014-Nov-18 17:31N 51°27' E 003°42'0 0.0
2014-Nov-18 16:31N 51°27' E 003°42'0 0.0
2014-Nov-18 15:31N 51°27' E 003°42'0 0.0
2014-Nov-18 14:31N 51°27' E 003°42'0 0.0
2014-Nov-18 13:28N 51°27' E 003°42'0 0.0
2014-Nov-18 12:31N 51°27' E 003°42'0 0.0
2014-Nov-18 11:31N 51°27' E 003°42'0 0.0
2014-Nov-18 10:31N 51°27' E 003°42'0 0.0
2014-Nov-18 09:19N 51°27' E 003°42'0 0.0
2014-Nov-18 08:31N 51°27' E 003°42'0 0.0
2014-Nov-18 07:31N 51°27' E 003°42'0 0.0
2014-Nov-18 06:31N 51°27' E 003°42'0 0.0
2014-Nov-18 05:25N 51°27' E 003°42'0 0.0
2014-Nov-18 04:25N 51°27' E 003°42'0 0.0
2014-Nov-18 03:31N 51°27' E 003°42'0 0.0
2014-Nov-18 02:31N 51°27' E 003°42'0 0.0
2014-Nov-18 01:25N 51°27' E 003°42'0 0.0
2014-Nov-18 00:34N 51°27' E 003°42'0 0.0
2014-Nov-17 23:33N 51°27' E 003°42'0 0.0
2014-Nov-17 22:18N 51°27' E 003°42'0 0.0
2014-Nov-17 21:33N 51°27' E 003°42'0 0.0
2014-Nov-17 20:33N 51°27' E 003°42'0 0.0
2014-Nov-17 19:33N 51°27' E 003°42'0 0.0
2014-Nov-17 18:30N 51°27' E 003°42'0 0.0
2014-Nov-17 17:30N 51°27' E 003°42'0 0.0
2014-Nov-17 16:33N 51°27' E 003°42'0 0.0
2014-Nov-17 15:33N 51°27' E 003°42'0 0.0
2014-Nov-17 14:30N 51°27' E 003°42'0 0.0
2014-Nov-17 13:30N 51°27' E 003°42'0 0.0
2014-Nov-17 12:30N 51°27' E 003°42'0 0.0
2014-Nov-17 11:30N 51°27' E 003°42'0 0.0
2014-Nov-17 10:33N 51°27' E 003°42'0 0.0
2014-Nov-17 09:33N 51°27' E 003°42'0 0.0
2014-Nov-17 08:30N 51°27' E 003°42'0 0.0
2014-Nov-17 07:30N 51°27' E 003°42'0 0.0
2014-Nov-17 06:33N 51°27' E 003°42'0 0.0
2014-Nov-17 05:33N 51°27' E 003°42'0 0.0
2014-Nov-17 04:33N 51°27' E 003°42'0 0.0
2014-Nov-17 03:30N 51°27' E 003°42'  

Dump ship's entire track history